createdAt,value
2022-08-05T00:00:17.331Z,2.40
2022-08-05T00:02:51.458Z,2.22
2022-08-05T00:06:01.698Z,2.35
2022-08-05T00:08:34.169Z,2.45
2022-08-05T00:11:00.395Z,2.70
2022-08-05T00:13:39.084Z,2.53
2022-08-05T00:16:08.969Z,2.42
2022-08-05T00:18:38.022Z,2.38
2022-08-05T00:21:06.784Z,2.15
2022-08-05T00:23:46.579Z,2.42
2022-08-05T00:26:21.978Z,2.42
2022-08-05T00:28:49.244Z,2.50
2022-08-05T00:31:16.297Z,2.60
2022-08-05T00:34:54.293Z,2.53
2022-08-05T00:37:12.873Z,2.70
2022-08-05T00:39:15.787Z,2.50
2022-08-05T00:41:52.155Z,2.65
2022-08-05T00:44:30.698Z,2.95
2022-08-05T00:47:02.196Z,2.40
2022-08-05T00:49:32.425Z,2.47
2022-08-05T00:51:59.558Z,2.35
2022-08-05T00:54:28.138Z,2.28
2022-08-05T00:56:56.895Z,2.60
2022-08-05T00:59:23.775Z,2.50
2022-08-05T01:01:51.130Z,2.30
2022-08-05T01:04:19.943Z,2.35
2022-08-05T01:06:53.015Z,2.10
2022-08-05T01:09:19.996Z,2.17
2022-08-05T01:11:49.644Z,2.00
2022-08-05T01:14:45.059Z,2.58
2022-08-05T01:17:23.585Z,2.42
2022-08-05T01:20:07.716Z,2.47
2022-08-05T01:22:37.294Z,2.28
2022-08-05T01:25:19.368Z,2.78
2022-08-05T01:27:58.465Z,2.40
2022-08-05T01:30:33.509Z,2.67
2022-08-05T01:33:08.114Z,2.53
2022-08-05T01:35:51.657Z,2.40
2022-08-05T01:38:27.532Z,2.47
2022-08-05T01:41:01.894Z,2.35
2022-08-05T01:43:31.081Z,2.42
2022-08-05T01:46:07.183Z,2.75
2022-08-05T01:48:49.586Z,3.03
2022-08-05T01:51:18.858Z,2.60
2022-08-05T01:53:57.708Z,2.50
2022-08-05T01:58:11.544Z,3.03
2022-08-05T01:59:22.911Z,2.67
2022-08-05T02:01:54.735Z,2.90
2022-08-05T02:04:26.561Z,2.30
2022-08-05T02:06:53.430Z,2.25
2022-08-05T02:09:20.834Z,2.40
2022-08-05T02:12:10.039Z,2.58
2022-08-05T02:14:47.809Z,2.40
2022-08-05T02:18:14.583Z,2.63
2022-08-05T02:20:14.501Z,2.60
2022-08-05T02:22:50.184Z,2.83
2022-08-05T02:25:33.055Z,2.28
2022-08-05T02:28:01.857Z,2.53
2022-08-05T02:30:38.327Z,2.38
2022-08-05T02:33:24.443Z,2.50
2022-08-05T02:36:03.522Z,2.90
2022-08-05T02:38:35.464Z,2.20
2022-08-05T02:41:14.649Z,2.33
2022-08-05T02:44:06.485Z,2.25
2022-08-05T02:46:36.119Z,2.55
2022-08-05T02:49:22.958Z,2.72
2022-08-05T02:52:03.556Z,2.53
2022-08-05T02:54:36.127Z,2.63
2022-08-05T02:57:10.124Z,2.78
2022-08-05T02:59:54.261Z,2.63
2022-08-05T03:02:27.429Z,2.40
2022-08-05T03:04:55.214Z,2.90
2022-08-05T03:07:48.430Z,3.25
2022-08-05T03:10:10.539Z,2.63
2022-08-05T03:12:40.210Z,2.70
2022-08-05T03:15:12.193Z,2.58
2022-08-05T03:17:41.614Z,2.67
2022-08-05T03:20:10.099Z,2.80
2022-08-05T03:22:37.006Z,2.22
2022-08-05T03:27:59.012Z,2.53
2022-08-05T03:30:28.663Z,2.80
2022-08-05T03:33:02.874Z,2.85
2022-08-05T03:35:33.746Z,2.65
2022-08-05T03:38:01.221Z,2.67
2022-08-05T03:40:32.025Z,2.50
2022-08-05T03:43:01.665Z,2.60
2022-08-05T03:45:57.084Z,2.80
2022-08-05T03:48:29.631Z,2.50
2022-08-05T03:52:37.445Z,3.05
2022-08-05T03:55:54.744Z,2.85
2022-08-05T03:57:34.185Z,2.83
2022-08-05T04:00:08.011Z,2.92
2022-08-05T04:02:38.784Z,2.63
2022-08-05T04:05:13.026Z,2.55
2022-08-05T04:07:58.103Z,2.92
2022-08-05T04:10:33.356Z,3.00
2022-08-05T04:13:05.599Z,2.80
2022-08-05T04:15:36.278Z,2.83
2022-08-05T04:18:07.334Z,3.00
2022-08-05T04:20:36.809Z,3.00
2022-08-05T04:23:03.682Z,2.78
2022-08-05T04:25:56.673Z,2.97
2022-08-05T04:28:17.668Z,2.60
2022-08-05T04:30:45.144Z,3.00
2022-08-05T04:33:11.907Z,2.80
2022-08-05T04:36:10.854Z,2.60
2022-08-05T04:38:39.750Z,2.90
2022-08-05T04:41:07.328Z,2.58
2022-08-05T04:43:36.036Z,3.10
2022-08-05T04:46:05.085Z,2.65
2022-08-05T04:48:31.970Z,2.88
2022-08-05T04:53:33.699Z,2.97
2022-08-05T04:56:32.400Z,3.50
2022-08-05T04:58:48.357Z,3.38
2022-08-05T05:01:14.899Z,2.88
2022-08-05T05:04:00.562Z,3.30
2022-08-05T05:06:39.827Z,3.20
2022-08-05T05:09:17.043Z,3.60
2022-08-05T05:11:54.457Z,2.80
2022-08-05T05:14:27.995Z,2.80
2022-08-05T05:16:59.928Z,3.00
2022-08-05T05:19:26.576Z,3.20
2022-08-05T05:22:03.618Z,3.20
2022-08-05T05:24:58.034Z,3.13
2022-08-05T05:27:44.943Z,3.15
2022-08-05T05:30:31.031Z,3.00
2022-08-05T05:33:13.936Z,2.80
2022-08-05T05:35:44.338Z,2.92
2022-08-05T05:38:13.188Z,2.70
2022-08-05T05:40:49.435Z,2.70
2022-08-05T05:43:27.851Z,2.67
2022-08-05T05:46:05.241Z,2.80
2022-08-05T05:48:32.349Z,2.90
2022-08-05T05:51:15.070Z,2.97
2022-08-05T05:53:45.979Z,2.40
2022-08-05T05:56:26.178Z,2.47
2022-08-05T05:58:58.597Z,2.63
2022-08-05T06:01:37.177Z,2.80
2022-08-05T06:04:07.539Z,2.50
2022-08-05T06:06:35.102Z,2.72
2022-08-05T06:09:05.703Z,2.50
2022-08-05T06:11:34.577Z,2.88
2022-08-05T06:14:01.627Z,2.53
2022-08-05T06:16:36.932Z,2.67
2022-08-05T06:19:05.893Z,2.20
2022-08-05T06:21:35.888Z,2.30
2022-08-05T06:24:12.423Z,2.85
2022-08-05T06:26:52.325Z,2.35
2022-08-05T06:29:49.610Z,2.67
2022-08-05T06:32:25.190Z,2.63
2022-08-05T06:34:56.247Z,1.95
2022-08-05T06:37:52.410Z,2.30
2022-08-05T06:40:11.158Z,2.42
2022-08-05T06:42:39.751Z,2.35
2022-08-05T06:45:08.599Z,2.50
2022-08-05T06:48:37.220Z,2.22
2022-08-05T06:50:23.589Z,2.05
2022-08-05T06:53:03.531Z,2.22
2022-08-05T06:55:36.970Z,2.67
2022-08-05T06:58:29.518Z,2.20
2022-08-05T07:00:50.671Z,2.20
2022-08-05T07:03:17.423Z,2.10
2022-08-05T07:05:44.542Z,2.72
2022-08-05T07:08:13.105Z,2.40
2022-08-05T07:10:53.221Z,2.40
2022-08-05T07:13:59.364Z,2.75
2022-08-05T07:17:56.217Z,2.58
2022-08-05T07:22:28.101Z,2.80
2022-08-05T07:25:09.502Z,3.00
2022-08-05T07:27:57.399Z,2.90
2022-08-05T07:30:34.268Z,3.00
2022-08-05T07:33:05.316Z,3.00
2022-08-05T07:36:05.387Z,3.13
2022-08-05T07:38:35.353Z,3.10
2022-08-05T07:45:13.573Z,3.95
2022-08-05T07:48:13.972Z,3.65
2022-08-05T07:51:00.587Z,4.00
2022-08-05T07:53:36.875Z,4.05
2022-08-05T07:57:00.063Z,4.13
2022-08-05T07:59:03.981Z,4.43
2022-08-05T08:05:49.428Z,4.13
2022-08-05T08:08:12.472Z,4.07
2022-08-05T08:10:40.691Z,3.55
2022-08-05T08:13:07.213Z,4.43
2022-08-05T08:24:01.541Z,3.75
2022-08-05T08:26:02.424Z,3.50
2022-08-05T08:28:59.259Z,3.60
2022-08-05T08:31:41.381Z,3.47
2022-08-05T08:34:09.652Z,4.15
2022-08-05T08:36:48.977Z,3.75
2022-08-05T08:39:28.213Z,4.03
2022-08-05T08:42:00.010Z,3.20
2022-08-05T08:45:19.194Z,4.20
2022-08-05T08:48:12.316Z,3.50
2022-08-05T08:51:04.068Z,3.95
2022-08-05T08:53:22.401Z,3.42
2022-08-05T08:56:03.626Z,3.70
2022-08-05T08:58:43.193Z,3.50
2022-08-05T09:01:15.798Z,4.18
2022-08-05T09:03:54.230Z,3.92
2022-08-05T09:06:27.965Z,3.92
2022-08-05T09:08:58.280Z,3.72
2022-08-05T09:11:53.042Z,4.43
2022-08-05T09:14:58.677Z,4.63
2022-08-05T09:17:00.098Z,3.88
2022-08-05T09:19:27.940Z,3.90
2022-08-05T09:22:23.367Z,3.47
2022-08-05T09:25:13.551Z,3.53
2022-08-05T09:28:05.940Z,3.53
2022-08-05T09:30:34.953Z,3.30
2022-08-05T09:33:02.429Z,3.38
2022-08-05T09:35:31.515Z,3.22
2022-08-05T09:38:17.915Z,3.75
2022-08-05T09:43:40.588Z,3.80
2022-08-05T09:46:28.509Z,3.50
2022-08-05T09:49:07.312Z,4.00
2022-08-05T09:51:49.592Z,4.00
2022-08-05T09:54:29.025Z,3.10
2022-08-05T09:56:56.241Z,3.20
2022-08-05T09:59:24.274Z,3.92
2022-08-05T10:01:58.011Z,3.30
2022-08-05T10:04:35.337Z,4.03
2022-08-05T10:07:14.090Z,4.20
2022-08-05T10:12:49.203Z,3.45
2022-08-05T10:15:20.957Z,3.80
2022-08-05T10:18:22.857Z,3.45
2022-08-05T10:20:53.226Z,4.05
2022-08-05T10:23:55.109Z,3.28
2022-08-05T10:26:13.763Z,3.70
2022-08-05T10:28:44.962Z,3.60
2022-08-05T10:32:53.606Z,3.80
2022-08-05T10:34:00.163Z,3.85
2022-08-05T10:36:27.213Z,3.55
2022-08-05T10:39:10.074Z,4.10
2022-08-05T10:42:13.305Z,3.50
2022-08-05T10:44:45.119Z,4.47
2022-08-05T10:47:26.426Z,3.72
2022-08-05T10:50:33.009Z,4.93
2022-08-05T10:53:01.075Z,3.40
2022-08-05T10:55:30.506Z,4.05
2022-08-05T10:58:09.656Z,3.70
2022-08-05T11:00:42.063Z,3.45
2022-08-05T11:03:24.233Z,3.70
2022-08-05T11:06:16.210Z,3.63
2022-08-05T11:09:18.500Z,4.03
2022-08-05T11:11:52.556Z,3.90
2022-08-05T11:14:42.926Z,3.75
2022-08-05T11:18:07.393Z,3.47
2022-08-05T11:20:39.107Z,3.95
2022-08-05T11:23:33.454Z,3.80
2022-08-05T11:26:17.194Z,3.95
2022-08-05T11:28:56.213Z,3.30
2022-08-05T11:31:58.871Z,3.17
2022-08-05T11:34:37.281Z,3.45
2022-08-05T11:37:06.259Z,3.63
2022-08-05T11:39:55.408Z,3.45
2022-08-05T11:42:28.066Z,3.60
2022-08-05T11:45:05.323Z,3.90
2022-08-05T11:47:48.563Z,3.40
2022-08-05T11:50:16.667Z,3.67
2022-08-05T11:52:44.046Z,3.10
2022-08-05T11:55:13.323Z,3.08
2022-08-05T11:58:09.532Z,2.78
2022-08-05T12:00:32.638Z,2.60
2022-08-05T12:03:28.965Z,2.70
2022-08-05T12:06:06.216Z,3.00
2022-08-05T12:08:49.843Z,2.55
2022-08-05T12:11:23.313Z,2.40
2022-08-05T12:14:04.264Z,2.33
2022-08-05T12:16:39.408Z,2.30
2022-08-05T12:19:08.448Z,2.50
2022-08-05T12:21:41.850Z,2.35
2022-08-05T12:24:14.322Z,2.40
2022-08-05T12:26:54.319Z,2.42
2022-08-05T12:29:26.530Z,2.20
2022-08-05T12:31:55.544Z,2.50
2022-08-05T12:34:28.352Z,2.10
2022-08-05T12:36:57.037Z,2.35
2022-08-05T12:39:27.921Z,2.63
2022-08-05T12:42:01.244Z,2.40
2022-08-05T12:44:33.892Z,2.20
2022-08-05T12:47:01.696Z,1.95
2022-08-05T12:50:01.986Z,2.33
2022-08-05T12:52:32.278Z,2.10
2022-08-05T12:55:16.922Z,2.40
2022-08-05T12:58:38.364Z,2.10
2022-08-05T13:02:05.821Z,2.70
2022-08-05T13:03:18.055Z,2.45
2022-08-05T13:05:48.138Z,2.13
2022-08-05T13:08:19.615Z,3.05
2022-08-05T13:10:50.490Z,2.58
2022-08-05T13:14:05.052Z,2.20
2022-08-05T13:16:12.577Z,2.40
2022-08-05T13:18:51.682Z,2.10
2022-08-05T13:21:18.147Z,2.60
2022-08-05T13:23:50.801Z,2.22
2022-08-05T13:26:18.748Z,2.45
2022-08-05T13:28:46.587Z,2.00
2022-08-05T13:31:14.280Z,1.90
2022-08-05T13:34:21.106Z,2.47
2022-08-05T13:36:28.881Z,2.00
2022-08-05T13:38:55.529Z,2.08
2022-08-05T13:41:25.817Z,2.20
2022-08-05T13:44:04.560Z,2.15
2022-08-05T13:46:51.043Z,2.63
2022-08-05T13:49:19.454Z,2.05
2022-08-05T13:51:47.023Z,2.00
2022-08-05T13:54:15.884Z,2.00
2022-08-05T13:56:45.014Z,1.90
2022-08-05T13:59:20.254Z,2.17
2022-08-05T14:01:57.608Z,1.90
2022-08-05T14:04:50.552Z,2.22
2022-08-05T14:08:05.550Z,1.65
2022-08-05T14:10:31.073Z,1.90
2022-08-05T14:12:58.291Z,1.67
2022-08-05T14:16:05.996Z,2.30
2022-08-05T14:18:18.080Z,1.80
2022-08-05T14:20:47.483Z,1.83
2022-08-05T14:23:23.798Z,1.80
2022-08-05T14:25:54.105Z,1.67
2022-08-05T14:28:26.690Z,1.88
2022-08-05T14:30:53.697Z,1.63
2022-08-05T14:33:23.003Z,1.80
2022-08-05T14:35:50.679Z,2.00
2022-08-05T14:38:27.757Z,1.98
2022-08-05T14:41:00.888Z,2.00
2022-08-05T14:44:01.645Z,1.80
2022-08-05T14:46:13.873Z,1.80
2022-08-05T14:48:40.526Z,1.70
2022-08-05T14:51:06.983Z,1.83
2022-08-05T14:53:35.146Z,1.77
2022-08-05T14:56:11.210Z,1.70
2022-08-05T14:58:38.543Z,1.70
2022-08-05T15:01:16.030Z,1.90
2022-08-05T15:03:43.533Z,1.58
2022-08-05T15:06:14.911Z,2.05
2022-08-05T15:08:59.868Z,1.90
2022-08-05T15:11:52.564Z,1.80
2022-08-05T15:14:20.262Z,1.80
2022-08-05T15:17:01.090Z,1.50
2022-08-05T15:19:27.627Z,2.05
2022-08-05T15:21:54.470Z,1.50
2022-08-05T15:24:26.795Z,1.60
2022-08-05T15:26:53.248Z,2.20
2022-08-05T15:29:29.878Z,2.08
2022-08-05T15:31:57.394Z,1.70
2022-08-05T15:34:33.093Z,2.13
2022-08-05T15:37:06.143Z,1.75
2022-08-05T15:40:59.590Z,2.00
2022-08-05T15:42:53.964Z,2.05
2022-08-05T15:45:06.502Z,2.00
2022-08-05T15:47:32.987Z,1.55
2022-08-05T15:50:03.022Z,1.80
2022-08-05T15:52:53.774Z,2.03
2022-08-05T15:55:20.082Z,1.90
2022-08-05T15:57:51.854Z,1.88
2022-08-05T16:00:26.311Z,2.05
2022-08-05T16:03:05.006Z,1.70
2022-08-05T16:05:31.925Z,1.42
2022-08-05T16:07:58.366Z,2.13
2022-08-05T16:10:26.955Z,1.77
2022-08-05T16:12:55.968Z,1.90
2022-08-05T16:15:23.147Z,1.80
2022-08-05T16:17:57.499Z,1.85
2022-08-05T16:20:25.368Z,1.80
2022-08-05T16:22:51.950Z,2.00
2022-08-05T16:25:18.519Z,1.83
2022-08-05T16:27:47.004Z,1.83
2022-08-05T16:30:28.843Z,1.90
2022-08-05T16:32:55.710Z,2.10
2022-08-05T16:35:24.874Z,1.60
2022-08-05T16:38:02.683Z,2.10
2022-08-05T16:40:41.800Z,1.80
2022-08-05T16:43:08.331Z,1.90
2022-08-05T16:46:05.378Z,1.77
2022-08-05T16:48:25.360Z,2.40
2022-08-05T16:50:53.293Z,2.33
2022-08-05T16:53:22.443Z,1.88
2022-08-05T16:55:49.961Z,2.08
2022-08-05T16:58:19.975Z,1.77
2022-08-05T17:00:47.002Z,2.00
2022-08-05T17:03:19.832Z,1.70
2022-08-05T17:05:54.008Z,1.90
2022-08-05T17:08:36.310Z,2.03
2022-08-05T17:11:16.960Z,2.25
2022-08-05T17:13:47.002Z,2.20
2022-08-05T17:16:32.913Z,2.10
2022-08-05T17:19:00.852Z,2.30
2022-08-05T17:21:35.346Z,2.20
2022-08-05T17:24:04.841Z,2.03
2022-08-05T17:26:47.118Z,2.85
2022-08-05T17:29:14.306Z,2.20
2022-08-05T17:31:57.082Z,2.15
2022-08-05T17:34:29.765Z,1.40
2022-08-05T17:36:58.996Z,1.30
2022-08-05T17:39:29.826Z,1.92
2022-08-05T17:42:17.603Z,1.30
2022-08-05T17:44:50.237Z,1.45
2022-08-05T17:47:22.542Z,1.70
2022-08-05T17:50:03.720Z,1.30
2022-08-05T17:52:34.148Z,3.60
2022-08-05T17:55:01.211Z,3.35
2022-08-05T17:57:29.593Z,2.42
2022-08-05T18:00:04.885Z,2.65
2022-08-05T18:02:33.233Z,2.50
2022-08-05T18:05:06.400Z,2.10
2022-08-05T18:07:41.360Z,1.90
2022-08-05T18:10:10.449Z,1.85
2022-08-05T18:12:37.331Z,2.00
2022-08-05T18:15:04.193Z,2.00
2022-08-05T18:18:00.796Z,2.15
2022-08-05T18:20:28.973Z,2.05
2022-08-05T18:25:25.033Z,2.60
2022-08-05T18:27:52.416Z,2.97
2022-08-05T18:30:19.609Z,2.72
2022-08-05T18:32:53.184Z,3.25
2022-08-05T18:35:28.282Z,3.65
2022-08-05T18:38:08.919Z,3.33
2022-08-05T18:41:56.161Z,3.15
2022-08-05T18:43:23.068Z,3.10
2022-08-05T18:45:49.654Z,3.30
2022-08-05T18:48:30.796Z,3.38
2022-08-05T18:52:05.293Z,3.15
2022-08-05T18:56:30.527Z,3.50
2022-08-05T18:59:01.184Z,3.67
2022-08-05T19:01:47.166Z,3.78
2022-08-05T19:04:14.333Z,4.07
2022-08-05T19:09:17.174Z,4.32
2022-08-05T19:12:00.752Z,4.35
2022-08-05T19:14:31.134Z,4.70
2022-08-05T19:17:12.932Z,4.35
2022-08-05T19:19:46.512Z,5.40
2022-08-05T19:22:13.696Z,5.20
2022-08-05T19:24:54.346Z,6.10
2022-08-05T19:27:27.758Z,4.85
2022-08-05T19:29:57.236Z,5.03
2022-08-05T19:32:26.180Z,4.97
2022-08-05T19:34:54.596Z,5.43
2022-08-05T19:37:29.737Z,4.57
2022-08-05T19:40:12.179Z,4.85
2022-08-05T19:42:39.049Z,4.70
2022-08-05T19:45:07.078Z,4.05
2022-08-05T19:47:37.158Z,5.13
2022-08-05T19:50:06.204Z,4.55
2022-08-05T19:52:34.555Z,4.82
2022-08-05T19:55:07.106Z,5.20
2022-08-05T19:58:19.735Z,6.53
2022-08-05T20:00:35.656Z,5.40
2022-08-05T20:03:08.467Z,4.45
2022-08-05T20:05:49.830Z,4.40
2022-08-05T20:08:17.337Z,4.55
2022-08-05T20:13:10.904Z,4.35
2022-08-05T20:15:52.597Z,3.60
2022-08-05T20:18:34.006Z,3.67
2022-08-05T20:21:05.162Z,3.60
2022-08-05T20:23:50.941Z,3.42
2022-08-05T20:26:21.644Z,2.80
2022-08-05T20:28:53.786Z,2.45
2022-08-05T20:31:37.226Z,2.40
2022-08-05T20:34:12.513Z,2.70
2022-08-05T20:36:43.329Z,2.67
2022-08-05T20:39:13.231Z,2.00
2022-08-05T20:41:43.545Z,1.95
2022-08-05T20:44:18.962Z,2.30
2022-08-05T20:46:58.231Z,1.73
2022-08-05T20:49:26.113Z,1.45
2022-08-05T20:51:54.123Z,1.40
2022-08-05T20:54:21.291Z,1.42
2022-08-05T20:56:48.943Z,1.17
2022-08-05T20:59:19.222Z,1.10
2022-08-05T21:01:53.715Z,1.60
2022-08-05T21:04:27.008Z,1.23
2022-08-05T21:06:54.073Z,1.42
2022-08-05T21:12:09.931Z,1.30
2022-08-05T21:14:34.933Z,1.10
2022-08-05T21:17:03.024Z,1.38
2022-08-05T21:19:46.501Z,1.00
2022-08-05T21:22:23.339Z,1.05
2022-08-05T21:24:54.444Z,1.20
2022-08-05T21:27:27.089Z,1.13
2022-08-05T21:29:55.832Z,0.90
2022-08-05T21:32:27.042Z,0.90
2022-08-05T21:35:08.445Z,1.20
2022-08-05T21:37:42.720Z,1.25
2022-08-05T21:40:14.203Z,1.00
2022-08-05T21:42:45.330Z,0.90
2022-08-05T21:45:17.591Z,0.93
2022-08-05T21:47:56.385Z,0.80
2022-08-05T21:50:25.865Z,0.90
2022-08-05T21:52:52.320Z,0.98
2022-08-05T21:55:23.731Z,1.00
2022-08-05T21:58:06.339Z,1.17
2022-08-05T22:02:59.773Z,1.27
2022-08-05T22:05:27.344Z,0.88
2022-08-05T22:07:59.379Z,0.95
2022-08-05T22:10:27.498Z,1.10
2022-08-05T22:12:59.062Z,0.90
2022-08-05T22:16:00.595Z,1.20
2022-08-05T22:18:25.712Z,1.10
2022-08-05T22:20:52.551Z,1.20
2022-08-05T22:24:02.432Z,0.90
2022-08-05T22:26:42.233Z,0.85
2022-08-05T22:29:17.399Z,1.35
2022-08-05T22:31:45.285Z,0.90
2022-08-05T22:34:12.861Z,1.45
2022-08-05T22:36:46.878Z,2.35
2022-08-05T22:39:19.723Z,1.88
2022-08-05T22:42:09.416Z,1.60
2022-08-05T22:44:34.507Z,1.50
2022-08-05T22:47:01.001Z,2.00
2022-08-05T22:50:20.706Z,1.55
2022-08-05T22:52:22.845Z,1.40
2022-08-05T22:54:59.289Z,1.23
2022-08-05T22:57:26.556Z,1.27
2022-08-05T22:59:54.299Z,1.10
2022-08-05T23:02:29.242Z,1.92
2022-08-05T23:04:57.898Z,1.30
2022-08-05T23:07:28.232Z,1.67
2022-08-05T23:10:01.451Z,1.60
2022-08-05T23:12:32.612Z,1.73
2022-08-05T23:15:01.419Z,1.60
2022-08-05T23:17:32.850Z,1.70
2022-08-05T23:20:16.831Z,1.65
2022-08-05T23:22:47.116Z,2.00
2022-08-05T23:25:17.525Z,1.83
2022-08-05T23:28:01.066Z,1.65
2022-08-05T23:30:29.067Z,2.38
2022-08-05T23:32:57.703Z,2.30
2022-08-05T23:35:25.383Z,1.80
2022-08-05T23:37:55.114Z,2.25
2022-08-05T23:40:27.131Z,2.22
2022-08-05T23:42:53.908Z,1.85
2022-08-05T23:45:20.498Z,2.13
2022-08-05T23:47:50.364Z,2.55
2022-08-05T23:50:20.598Z,1.90
2022-08-05T23:52:50.044Z,2.00
2022-08-05T23:55:18.295Z,2.00
2022-08-05T23:57:51.055Z,2.22
